createdAt,value
2022-11-24T00:00:37.268Z,12.50
2022-11-24T00:03:03.955Z,12.60
2022-11-24T00:05:30.523Z,12.60
2022-11-24T00:07:57.038Z,12.60
2022-11-24T00:10:23.541Z,12.70
2022-11-24T00:12:50.022Z,12.70
2022-11-24T00:15:16.488Z,12.60
2022-11-24T00:17:42.936Z,12.70
2022-11-24T00:20:09.388Z,12.60
2022-11-24T00:22:35.859Z,12.50
2022-11-24T00:25:02.359Z,12.60
2022-11-24T00:27:28.808Z,12.70
2022-11-24T00:29:55.255Z,12.70
2022-11-24T00:32:21.707Z,12.80
2022-11-24T00:34:48.159Z,12.90
2022-11-24T00:37:14.640Z,12.60
2022-11-24T00:39:41.099Z,12.60
2022-11-24T00:42:07.560Z,12.60
2022-11-24T00:44:34.264Z,12.70
2022-11-24T00:47:00.995Z,12.60
2022-11-24T00:49:27.561Z,12.70
2022-11-24T00:51:54.012Z,12.60
2022-11-24T00:54:20.494Z,12.50
2022-11-24T00:56:46.951Z,12.50
2022-11-24T00:59:13.418Z,12.50
2022-11-24T01:01:39.948Z,12.70
2022-11-24T01:04:06.483Z,12.60
2022-11-24T01:06:32.973Z,12.80
2022-11-24T01:08:59.454Z,12.70
2022-11-24T01:11:25.957Z,12.70
2022-11-24T01:13:52.412Z,12.70
2022-11-24T01:16:18.959Z,12.60
2022-11-24T01:18:45.490Z,12.60
2022-11-24T01:21:11.939Z,12.80
2022-11-24T01:23:38.422Z,12.80
2022-11-24T01:26:04.901Z,12.60
2022-11-24T01:28:31.391Z,12.50
2022-11-24T01:30:57.875Z,12.60
2022-11-24T01:33:24.345Z,12.60
2022-11-24T01:35:50.800Z,12.50
2022-11-24T01:38:17.284Z,12.60
2022-11-24T01:40:43.770Z,12.50
2022-11-24T01:43:10.238Z,12.60
2022-11-24T01:45:36.715Z,12.40
2022-11-24T01:48:03.172Z,12.40
2022-11-24T01:50:29.767Z,12.50
2022-11-24T01:52:56.234Z,12.50
2022-11-24T01:55:22.676Z,12.50
2022-11-24T01:57:51.903Z,12.60
2022-11-24T02:00:18.361Z,12.60
2022-11-24T02:02:44.917Z,12.70
2022-11-24T02:05:11.455Z,12.70
2022-11-24T02:07:37.985Z,12.70
2022-11-24T02:10:04.595Z,12.70
2022-11-24T02:12:31.075Z,12.50
2022-11-24T02:14:57.554Z,12.60
2022-11-24T02:17:24.026Z,12.50
2022-11-24T02:19:50.518Z,12.50
2022-11-24T02:22:16.983Z,12.40
2022-11-24T02:24:43.453Z,12.40
2022-11-24T02:27:11.048Z,12.50
2022-11-24T02:29:37.487Z,12.50
2022-11-24T02:32:03.954Z,12.40
2022-11-24T02:34:30.431Z,12.40
2022-11-24T02:36:56.938Z,12.70
2022-11-24T02:39:23.470Z,12.60
2022-11-24T02:41:49.932Z,12.50
2022-11-24T02:44:16.388Z,12.70
2022-11-24T02:46:42.941Z,12.70
2022-11-24T02:49:09.438Z,12.40
2022-11-24T02:51:35.898Z,12.50
2022-11-24T02:54:02.371Z,12.40
2022-11-24T02:56:28.853Z,12.50
2022-11-24T02:58:55.375Z,12.60
2022-11-24T03:01:21.887Z,12.70
2022-11-24T03:03:48.408Z,12.60
2022-11-24T03:06:17.874Z,12.50
2022-11-24T03:08:44.339Z,12.60
2022-11-24T03:11:10.874Z,12.40
2022-11-24T03:13:37.309Z,12.50
2022-11-24T03:16:04.048Z,12.50
2022-11-24T03:18:30.552Z,12.60
2022-11-24T03:20:57.012Z,12.60
2022-11-24T03:23:23.485Z,12.50
2022-11-24T03:25:49.954Z,12.40
2022-11-24T03:28:16.435Z,12.50
2022-11-24T03:30:43.028Z,12.50
2022-11-24T03:33:09.519Z,12.60
2022-11-24T03:35:38.848Z,12.60
2022-11-24T03:38:05.319Z,12.60
2022-11-24T03:40:31.791Z,12.50
2022-11-24T03:42:58.250Z,12.50
2022-11-24T03:48:11.140Z,12.60
2022-11-24T03:50:37.614Z,12.70
2022-11-24T03:53:04.139Z,12.60
2022-11-24T03:55:30.613Z,12.60
2022-11-24T03:57:57.070Z,12.60
2022-11-24T04:00:23.545Z,12.80
2022-11-24T04:02:50.073Z,12.60
2022-11-24T04:05:16.619Z,12.50
2022-11-24T04:07:43.216Z,12.60
2022-11-24T04:10:09.716Z,12.50
2022-11-24T04:12:36.202Z,12.40
2022-11-24T04:15:02.688Z,12.40
2022-11-24T04:17:29.155Z,12.50
2022-11-24T04:19:55.626Z,12.50
2022-11-24T04:22:22.093Z,12.60
2022-11-24T04:24:51.455Z,12.60
2022-11-24T04:27:17.911Z,12.60
2022-11-24T04:29:44.370Z,12.60
2022-11-24T04:32:10.824Z,12.70
2022-11-24T04:34:37.294Z,12.50
2022-11-24T04:37:03.753Z,12.40
2022-11-24T04:39:30.221Z,12.30
2022-11-24T04:41:57.290Z,12.40
2022-11-24T04:44:23.756Z,12.50
2022-11-24T04:46:50.312Z,12.60
2022-11-24T04:49:16.830Z,12.60
2022-11-24T04:51:43.305Z,12.40
2022-11-24T04:54:09.756Z,12.50
2022-11-24T04:56:36.214Z,12.50
2022-11-24T04:59:07.816Z,12.60
2022-11-24T05:01:34.825Z,12.50
2022-11-24T05:04:01.367Z,12.40
2022-11-24T05:06:27.974Z,12.50
2022-11-24T05:08:54.456Z,12.60
2022-11-24T05:11:20.905Z,12.60
2022-11-24T05:13:47.349Z,12.60
2022-11-24T05:16:13.878Z,12.60
2022-11-24T05:18:40.359Z,12.70
2022-11-24T05:21:06.819Z,12.60
2022-11-24T05:23:33.359Z,12.70
2022-11-24T05:25:59.814Z,12.60
2022-11-24T05:28:26.291Z,12.70
2022-11-24T05:30:55.896Z,12.40
2022-11-24T05:33:22.477Z,12.50
2022-11-24T05:35:48.966Z,12.60
2022-11-24T05:38:15.407Z,12.70
2022-11-24T05:40:41.864Z,12.80
2022-11-24T05:43:08.339Z,12.70
2022-11-24T05:45:34.793Z,12.50
2022-11-24T05:48:01.242Z,12.60
2022-11-24T05:50:27.775Z,12.60
2022-11-24T05:52:54.281Z,12.50
2022-11-24T05:55:20.857Z,12.60
2022-11-24T05:57:47.312Z,12.70
2022-11-24T06:00:13.779Z,12.90
2022-11-24T06:02:40.948Z,13.00
2022-11-24T06:05:07.603Z,12.70
2022-11-24T06:07:34.123Z,12.70
2022-11-24T06:10:00.602Z,12.70
2022-11-24T06:12:27.067Z,12.60
2022-11-24T06:14:53.534Z,12.70
2022-11-24T06:17:19.959Z,12.70
2022-11-24T06:19:48.475Z,12.70
2022-11-24T06:22:14.947Z,12.90
2022-11-24T06:24:41.430Z,12.70
2022-11-24T06:27:07.898Z,12.60
2022-11-24T06:29:34.351Z,12.60
2022-11-24T06:32:00.845Z,12.50
2022-11-24T06:34:27.331Z,12.70
2022-11-24T06:36:53.796Z,12.80
2022-11-24T06:39:20.255Z,12.70
2022-11-24T06:41:46.724Z,12.80
2022-11-24T06:44:13.197Z,12.90
2022-11-24T06:46:39.659Z,12.70
2022-11-24T06:49:06.126Z,12.60
2022-11-24T06:51:33.178Z,12.60
2022-11-24T06:53:59.635Z,12.60
2022-11-24T06:56:26.099Z,12.60
2022-11-24T06:58:52.612Z,12.70
2022-11-24T07:01:19.137Z,12.60
2022-11-24T07:03:45.643Z,12.60
2022-11-24T07:06:12.105Z,12.70
2022-11-24T07:08:38.541Z,12.70
2022-11-24T07:11:04.994Z,12.50
2022-11-24T07:13:31.443Z,12.50
2022-11-24T07:15:57.933Z,12.50
2022-11-24T07:18:24.403Z,12.50
2022-11-24T07:20:50.879Z,12.50
2022-11-24T07:23:17.334Z,12.60
2022-11-24T07:25:43.812Z,12.70
2022-11-24T07:28:10.276Z,12.60
2022-11-24T07:30:36.719Z,12.50
2022-11-24T07:33:03.163Z,12.60
2022-11-24T07:35:29.633Z,12.70
2022-11-24T07:37:56.103Z,12.50
2022-11-24T07:40:22.578Z,12.60
2022-11-24T07:42:49.065Z,12.70
2022-11-24T07:45:15.522Z,12.50
2022-11-24T07:47:41.984Z,12.50
2022-11-24T07:50:08.559Z,12.60
2022-11-24T07:52:35.014Z,12.60
2022-11-24T07:55:01.468Z,12.60
2022-11-24T07:57:27.965Z,12.60
2022-11-24T07:59:54.427Z,12.50
2022-11-24T08:02:20.907Z,12.70
2022-11-24T08:04:47.365Z,12.50
2022-11-24T08:07:13.892Z,12.70
2022-11-24T08:09:40.370Z,12.70
2022-11-24T08:12:06.835Z,12.50
2022-11-24T08:14:34.121Z,12.50
2022-11-24T08:17:00.827Z,12.50
2022-11-24T08:19:27.321Z,12.60
2022-11-24T08:21:53.772Z,12.60
2022-11-24T08:24:20.241Z,12.50
2022-11-24T08:26:46.717Z,12.50
2022-11-24T08:29:13.189Z,12.50
2022-11-24T08:31:39.729Z,12.40
2022-11-24T08:34:06.218Z,12.50
2022-11-24T08:36:32.685Z,12.50
2022-11-24T08:38:59.162Z,12.60
2022-11-24T08:41:25.623Z,12.60
2022-11-24T08:43:52.108Z,12.60
2022-11-24T08:46:18.631Z,12.60
2022-11-24T08:48:45.236Z,12.60
2022-11-24T08:51:11.700Z,12.60
2022-11-24T08:53:38.149Z,12.60
2022-11-24T08:56:04.594Z,12.60
2022-11-24T08:58:31.049Z,12.50
2022-11-24T09:00:57.590Z,12.60
2022-11-24T09:03:24.289Z,12.60
2022-11-24T09:05:52.468Z,12.70
2022-11-24T09:08:19.443Z,12.60
2022-11-24T09:10:48.792Z,12.50
2022-11-24T09:13:15.267Z,12.50
2022-11-24T09:15:41.723Z,12.40
2022-11-24T09:18:08.215Z,12.40
2022-11-24T09:20:34.725Z,12.40
2022-11-24T09:23:01.200Z,12.50
2022-11-24T09:25:27.673Z,12.60
2022-11-24T09:27:54.149Z,12.60
2022-11-24T09:30:20.615Z,12.60
2022-11-24T09:32:47.091Z,12.50
2022-11-24T09:35:13.555Z,12.50
2022-11-24T09:37:40.007Z,12.60
2022-11-24T09:40:06.464Z,12.60
2022-11-24T09:42:32.936Z,12.60
2022-11-24T09:44:59.410Z,12.60
2022-11-24T09:47:25.868Z,12.70
2022-11-24T09:49:52.332Z,12.70
2022-11-24T09:52:19.293Z,12.60
2022-11-24T09:54:45.764Z,12.70
2022-11-24T09:57:12.274Z,12.60
2022-11-24T09:59:38.741Z,12.60
2022-11-24T10:02:05.304Z,12.40
2022-11-24T10:04:31.960Z,12.50
2022-11-24T10:06:58.560Z,12.40
2022-11-24T10:09:25.026Z,12.40
2022-11-24T10:11:51.489Z,12.50
2022-11-24T10:14:17.974Z,12.60
2022-11-24T10:16:44.431Z,12.50
2022-11-24T10:19:10.912Z,12.50
2022-11-24T10:21:37.381Z,12.50
2022-11-24T10:24:03.852Z,12.40
2022-11-24T10:26:30.316Z,12.60
2022-11-24T10:28:56.791Z,12.40
2022-11-24T10:31:23.363Z,12.30
2022-11-24T10:33:49.884Z,12.30
2022-11-24T10:36:19.548Z,12.40
2022-11-24T10:38:46.032Z,12.40
2022-11-24T10:41:12.483Z,12.40
2022-11-24T10:43:38.931Z,12.50
2022-11-24T10:46:05.549Z,12.40
2022-11-24T10:48:32.085Z,12.60
2022-11-24T10:50:58.558Z,12.60
2022-11-24T10:53:25.019Z,12.60
2022-11-24T10:55:51.503Z,12.70
2022-11-24T10:58:21.119Z,12.60
2022-11-24T11:00:47.592Z,12.70
2022-11-24T11:03:14.088Z,12.60
2022-11-24T11:05:40.572Z,12.60
2022-11-24T11:08:07.099Z,12.60
2022-11-24T11:10:33.605Z,12.60
2022-11-24T11:13:00.109Z,12.60
2022-11-24T11:15:26.773Z,12.60
2022-11-24T11:17:53.376Z,12.60
2022-11-24T11:20:19.859Z,12.70
2022-11-24T11:22:46.310Z,12.70
2022-11-24T11:25:12.880Z,12.60
2022-11-24T11:27:39.350Z,12.70
2022-11-24T11:35:38.733Z,12.60
2022-11-24T11:38:05.192Z,12.60
2022-11-24T11:40:31.644Z,12.70
2022-11-24T11:43:02.734Z,12.60
2022-11-24T11:45:29.680Z,12.60
2022-11-24T11:47:56.188Z,12.80
2022-11-24T11:50:22.773Z,12.60
2022-11-24T11:52:49.303Z,12.40
2022-11-24T11:55:15.798Z,12.40
2022-11-24T11:57:42.251Z,12.50
2022-11-24T12:00:08.736Z,12.60
2022-11-24T12:02:40.152Z,12.60
2022-11-24T12:05:07.124Z,12.60
2022-11-24T12:07:33.645Z,12.60
2022-11-24T12:10:00.124Z,12.80
2022-11-24T12:12:26.594Z,12.90
2022-11-24T12:14:53.047Z,12.90
2022-11-24T12:17:19.528Z,12.70
2022-11-24T12:19:47.170Z,12.80
2022-11-24T12:22:13.618Z,12.70
2022-11-24T12:24:40.127Z,12.80
2022-11-24T12:27:06.615Z,12.90
2022-11-24T12:29:33.409Z,13.00
2022-11-24T12:32:00.161Z,12.90
2022-11-24T12:34:26.620Z,12.80
2022-11-24T12:36:53.105Z,12.80
2022-11-24T12:39:19.567Z,12.80
2022-11-24T12:41:46.067Z,12.80
2022-11-24T12:44:12.533Z,12.90
2022-11-24T12:46:39.020Z,12.90
2022-11-24T12:49:05.480Z,12.90
2022-11-24T12:51:32.000Z,12.80
2022-11-24T12:53:58.491Z,12.80
2022-11-24T12:56:24.954Z,12.90
2022-11-24T12:58:51.413Z,12.80
2022-11-24T13:01:17.977Z,12.90
2022-11-24T13:03:44.518Z,12.90
2022-11-24T13:06:10.986Z,13.00
2022-11-24T13:08:40.474Z,12.90
2022-11-24T13:11:06.940Z,12.90
2022-11-24T13:13:33.676Z,12.90
2022-11-24T13:18:46.729Z,12.90
2022-11-24T13:21:13.273Z,13.00
2022-11-24T13:23:39.731Z,12.90
2022-11-24T13:26:06.228Z,13.00
2022-11-24T13:29:00.291Z,13.00
2022-11-24T13:31:19.204Z,13.10
2022-11-24T13:33:45.724Z,13.10
2022-11-24T13:36:12.180Z,13.10
2022-11-24T13:38:38.655Z,13.00
2022-11-24T13:41:21.210Z,13.00
2022-11-24T13:43:51.635Z,13.10
2022-11-24T13:46:18.139Z,13.10
2022-11-24T13:48:44.620Z,13.20
2022-11-24T13:51:11.087Z,13.10
2022-11-24T13:53:37.556Z,13.10
2022-11-24T13:56:04.080Z,13.10
2022-11-24T13:58:30.541Z,13.00
2022-11-24T14:00:58.446Z,13.10
2022-11-24T14:03:25.207Z,13.10
2022-11-24T14:05:51.775Z,13.10
2022-11-24T14:08:18.240Z,13.10
2022-11-24T14:10:44.805Z,13.20
2022-11-24T14:15:37.679Z,13.10
2022-11-24T14:18:04.173Z,13.10
2022-11-24T14:20:30.628Z,13.10
2022-11-24T14:22:57.137Z,13.10
2022-11-24T14:25:23.601Z,13.30
2022-11-24T14:27:50.227Z,13.10
2022-11-24T14:30:17.264Z,13.10
2022-11-24T14:32:43.774Z,13.10
2022-11-24T14:35:10.291Z,13.20
2022-11-24T14:37:36.769Z,13.20
2022-11-24T14:40:03.243Z,13.20
2022-11-24T14:42:29.703Z,13.20
2022-11-24T14:44:56.198Z,13.20
2022-11-24T14:47:28.716Z,13.20
2022-11-24T14:49:57.327Z,13.20
2022-11-24T14:52:23.821Z,13.20
2022-11-24T14:54:50.296Z,13.20
2022-11-24T14:57:16.785Z,13.30
2022-11-24T14:59:43.262Z,13.10
2022-11-24T15:02:12.789Z,13.20
2022-11-24T15:05:01.756Z,13.20
2022-11-24T15:07:25.984Z,13.20
2022-11-24T15:09:52.594Z,13.30
2022-11-24T15:12:19.060Z,13.40
2022-11-24T15:14:45.536Z,13.40
2022-11-24T15:17:11.994Z,13.50
2022-11-24T15:19:39.304Z,13.60
2022-11-24T15:22:05.826Z,13.70
2022-11-24T15:24:32.825Z,13.70
2022-11-24T15:26:59.454Z,13.60
2022-11-24T15:29:25.920Z,13.60
2022-11-24T15:31:53.121Z,13.40
2022-11-24T15:34:19.862Z,13.50
2022-11-24T15:36:46.365Z,13.60
2022-11-24T15:39:12.849Z,13.60
2022-11-24T15:41:39.310Z,13.70
2022-11-24T15:44:05.777Z,13.60
2022-11-24T15:46:32.316Z,13.60
2022-11-24T15:48:58.828Z,13.60
2022-11-24T15:51:25.318Z,13.60
2022-11-24T15:53:55.662Z,13.60
2022-11-24T15:56:25.333Z,13.60
2022-11-24T15:58:51.811Z,13.40
2022-11-24T16:01:18.340Z,13.80
2022-11-24T16:03:47.751Z,13.80
2022-11-24T16:06:17.928Z,13.70
2022-11-24T16:08:53.108Z,13.80
2022-11-24T16:11:19.581Z,13.70
2022-11-24T16:13:51.964Z,13.70
2022-11-24T16:16:19.282Z,13.80
2022-11-24T16:18:45.882Z,13.80
2022-11-24T16:21:12.348Z,13.80
2022-11-24T16:23:38.975Z,13.80
2022-11-24T16:26:05.496Z,13.90
2022-11-24T16:28:31.961Z,13.90
2022-11-24T16:30:58.446Z,13.90
2022-11-24T16:33:24.925Z,13.90
2022-11-24T16:35:51.403Z,13.90
2022-11-24T16:38:17.875Z,13.80
2022-11-24T16:40:44.340Z,13.80
2022-11-24T16:43:10.806Z,13.70
2022-11-24T16:45:39.680Z,13.60
2022-11-24T16:48:10.266Z,13.80
2022-11-24T16:50:36.735Z,13.80
2022-11-24T16:53:03.205Z,13.80
2022-11-24T16:55:29.724Z,13.90
2022-11-24T16:57:56.184Z,13.90
2022-11-24T17:00:22.649Z,13.80
2022-11-24T17:02:49.173Z,13.90
2022-11-24T17:05:15.762Z,13.90
2022-11-24T17:07:42.273Z,13.80
2022-11-24T17:10:08.766Z,13.80
2022-11-24T17:12:35.239Z,13.80
2022-11-24T17:15:31.019Z,13.90
2022-11-24T17:18:16.318Z,13.90
2022-11-24T17:20:34.589Z,13.90
2022-11-24T17:23:01.076Z,13.90
2022-11-24T17:25:27.560Z,13.90
2022-11-24T17:27:54.016Z,13.80
2022-11-24T17:30:20.463Z,13.90
2022-11-24T17:32:46.937Z,13.90
2022-11-24T17:35:13.402Z,13.80
2022-11-24T17:37:39.939Z,13.90
2022-11-24T17:40:27.294Z,13.80
2022-11-24T17:42:52.841Z,13.60
2022-11-24T17:45:19.307Z,13.80
2022-11-24T17:47:48.531Z,13.60
2022-11-24T17:50:15.012Z,13.70
2022-11-24T17:52:41.527Z,13.60
2022-11-24T17:55:07.992Z,13.70
2022-11-24T17:57:34.460Z,13.60
2022-11-24T18:00:00.935Z,13.40
2022-11-24T18:02:27.641Z,13.50
2022-11-24T18:04:54.114Z,13.40
2022-11-24T18:07:20.613Z,13.30
2022-11-24T18:09:47.171Z,13.40
2022-11-24T18:12:13.644Z,13.30
2022-11-24T18:14:40.107Z,13.40
2022-11-24T18:17:06.727Z,13.40
2022-11-24T18:19:33.322Z,13.50
2022-11-24T18:21:59.773Z,13.50
2022-11-24T18:24:26.242Z,13.50
2022-11-24T18:26:52.700Z,13.30
2022-11-24T18:29:19.172Z,13.20
2022-11-24T18:31:45.681Z,13.20
2022-11-24T18:34:12.200Z,13.30
2022-11-24T18:36:38.650Z,13.50
2022-11-24T18:39:05.147Z,13.30
2022-11-24T18:41:31.608Z,13.40
2022-11-24T18:43:58.131Z,13.50
2022-11-24T18:46:24.643Z,13.30
2022-11-24T18:48:51.164Z,13.40
2022-11-24T18:51:17.647Z,13.20
2022-11-24T18:53:47.121Z,13.20
2022-11-24T18:56:13.593Z,13.20
2022-11-24T18:58:40.057Z,13.30
2022-11-24T19:01:06.585Z,13.40
2022-11-24T19:03:33.221Z,13.20
2022-11-24T19:05:59.704Z,13.10
2022-11-24T19:08:26.175Z,13.20
2022-11-24T19:10:52.661Z,13.40
2022-11-24T19:13:19.129Z,13.40
2022-11-24T19:15:45.605Z,13.40
2022-11-24T19:18:12.255Z,13.40
2022-11-24T19:20:38.722Z,13.40
2022-11-24T19:23:05.203Z,13.50
2022-11-24T19:25:31.670Z,13.40
2022-11-24T19:27:58.149Z,13.40
2022-11-24T19:30:24.609Z,13.40
2022-11-24T19:32:51.071Z,13.40
2022-11-24T19:35:17.556Z,13.50
2022-11-24T19:37:44.004Z,13.50
2022-11-24T19:40:10.495Z,13.60
2022-11-24T19:42:39.283Z,13.60
2022-11-24T19:45:05.722Z,13.60
2022-11-24T19:47:32.165Z,13.70
2022-11-24T19:49:58.618Z,13.60
2022-11-24T19:52:25.100Z,13.70
2022-11-24T19:54:51.587Z,13.70
2022-11-24T19:57:18.075Z,13.70
2022-11-24T19:59:44.592Z,13.70
2022-11-24T20:02:11.142Z,13.60
2022-11-24T20:04:37.830Z,13.60
2022-11-24T20:07:04.325Z,13.60
2022-11-24T20:09:30.794Z,13.70
2022-11-24T20:11:57.245Z,13.70
2022-11-24T20:14:23.711Z,13.80
2022-11-24T20:16:50.240Z,13.70
2022-11-24T20:19:16.726Z,13.80
2022-11-24T20:21:43.210Z,13.70
2022-11-24T20:24:09.678Z,13.70
2022-11-24T20:26:36.121Z,13.70
2022-11-24T20:29:02.591Z,13.70
2022-11-24T20:31:29.065Z,13.70
2022-11-24T20:33:55.535Z,13.80
2022-11-24T20:36:21.987Z,13.70
2022-11-24T20:38:48.433Z,13.80
2022-11-24T20:41:14.882Z,13.80
2022-11-24T20:43:41.350Z,13.60
2022-11-24T20:46:07.870Z,13.70
2022-11-24T20:48:34.372Z,13.60
2022-11-24T20:51:00.815Z,13.70
2022-11-24T20:53:27.266Z,13.70
2022-11-24T20:55:53.739Z,13.70
2022-11-24T20:58:20.218Z,13.80
2022-11-24T21:00:46.708Z,13.80
2022-11-24T21:03:13.201Z,13.70
2022-11-24T21:05:39.665Z,13.80
2022-11-24T21:08:06.147Z,13.60
2022-11-24T21:10:32.691Z,13.60
2022-11-24T21:12:59.151Z,13.60
2022-11-24T21:15:25.610Z,13.70
2022-11-24T21:17:52.075Z,13.60
2022-11-24T21:20:18.538Z,13.60
2022-11-24T21:22:45.028Z,13.60
2022-11-24T21:25:11.496Z,13.70
2022-11-24T21:27:37.975Z,13.70
2022-11-24T21:30:04.432Z,13.70
2022-11-24T21:32:30.904Z,13.60
2022-11-24T21:34:57.366Z,13.60
2022-11-24T21:37:24.292Z,13.60
2022-11-24T21:39:50.775Z,13.50
2022-11-24T21:42:17.251Z,13.50
2022-11-24T21:44:43.715Z,13.60
2022-11-24T21:47:10.221Z,13.60
2022-11-24T21:49:36.691Z,13.60
2022-11-24T21:52:03.200Z,13.60
2022-11-24T21:54:29.761Z,13.60
2022-11-24T21:56:56.207Z,13.60
2022-11-24T21:59:22.679Z,13.60
2022-11-24T22:01:49.242Z,13.60
2022-11-24T22:04:15.807Z,13.60
2022-11-24T22:06:42.253Z,13.50
2022-11-24T22:09:11.348Z,13.60
2022-11-24T22:11:40.054Z,13.60
2022-11-24T22:14:06.515Z,13.60
2022-11-24T22:16:33.063Z,13.50
2022-11-24T22:18:59.571Z,13.50
2022-11-24T22:21:26.032Z,13.50
2022-11-24T22:23:52.521Z,13.70
2022-11-24T22:26:20.372Z,13.60
2022-11-24T22:28:46.850Z,13.50
2022-11-24T22:31:13.379Z,13.70
2022-11-24T22:33:39.906Z,13.50
2022-11-24T22:36:06.379Z,13.60
2022-11-24T22:38:32.896Z,13.70
2022-11-24T22:40:59.360Z,13.50
2022-11-24T22:43:25.846Z,13.60
2022-11-24T22:45:52.381Z,13.60
2022-11-24T22:48:18.891Z,13.60
2022-11-24T22:50:45.360Z,13.70
2022-11-24T22:53:11.831Z,13.60
2022-11-24T22:55:38.453Z,13.70
2022-11-24T22:58:05.451Z,13.70
2022-11-24T23:00:31.925Z,13.60
2022-11-24T23:02:58.443Z,13.60
2022-11-24T23:05:24.990Z,13.50
2022-11-24T23:07:51.497Z,13.60
2022-11-24T23:10:18.058Z,13.60
2022-11-24T23:12:44.510Z,13.50
2022-11-24T23:15:10.960Z,13.60
2022-11-24T23:17:37.419Z,13.60
2022-11-24T23:20:03.994Z,13.60
2022-11-24T23:22:30.502Z,13.60
2022-11-24T23:24:56.960Z,13.50
2022-11-24T23:27:23.415Z,13.60
2022-11-24T23:29:49.878Z,13.50
2022-11-24T23:32:16.400Z,13.70
2022-11-24T23:34:42.842Z,13.50
2022-11-24T23:37:09.308Z,13.70
2022-11-24T23:39:35.832Z,13.60
2022-11-24T23:42:02.319Z,13.50
2022-11-24T23:44:28.792Z,13.60
2022-11-24T23:46:55.263Z,13.50
2022-11-24T23:49:26.252Z,13.50
2022-11-24T23:51:52.715Z,13.50
2022-11-24T23:54:19.170Z,13.60
2022-11-24T23:56:45.634Z,13.60
2022-11-24T23:59:12.121Z,13.60
